Time;durP1;ratioP1;P1;durP2;ratioP2;P2;SDS_P1;SDS_P2;PMS_P1;PMS_P2;Temp;Humidity;BMP_temperature;BMP_pressure;BME280_temperature;BME280_humidity;BME280_pressure;Samples;Min_cycle;Max_cycle;Signal;HPM_P1;HPM_P2
2022/08/28 00:02:02;;;;;;;9.50;6.20;;;;;;;;;;110673;1251;34971;-32
2022/08/28 00:04:34;;;;;;;8.10;5.70;;;;;;;;;;110693;1245;35061;-32
2022/08/28 00:07:06;;;;;;;8.70;5.90;;;;;;;;;;110691;1243;33236;-32
2022/08/28 00:09:36;;;;;;;9.50;5.80;;;;;;;;;;110703;1244;35298;-32
2022/08/28 00:12:08;;;;;;;8.90;6.20;;;;;;;;;;110698;1251;35133;-32
2022/08/28 00:14:40;;;;;;;9.10;5.50;;;;;;;;;;110694;1251;33887;-32
2022/08/28 00:17:11;;;;;;;7.90;5.80;;;;;;;;;;110687;1245;34999;-32
2022/08/28 00:19:42;;;;;;;7.20;5.20;;;;;;;;;;110700;1251;34927;-32
2022/08/28 00:22:13;;;;;;;9.00;5.80;;;;;;;;;;110698;1244;35082;-32
2022/08/28 00:24:44;;;;;;;8.60;5.80;;;;;;;;;;110690;1251;34931;-32
2022/08/28 00:30:10;;;;;;;7.80;6.20;;;;;;;;;;110689;1245;34862;-33
2022/08/28 00:32:41;;;;;;;8.20;5.70;;;;;;;;;;110682;1244;34934;-32
2022/08/28 00:35:12;;;;;;;9.10;5.70;;;;;;;;;;110875;1250;33376;-32
2022/08/28 00:37:44;;;;;;;7.40;5.50;;;;;;;;;;110992;1249;35150;-32
2022/08/28 00:40:17;;;;;;;9.20;6.40;;;;;;;;;;110999;1249;35337;-32
2022/08/28 00:42:51;;;;;;;8.20;5.90;;;;;;;;;;111007;1251;34870;-33
2022/08/28 00:45:26;;;;;;;8.20;5.80;;;;;;;;;;110982;1241;33690;-33
2022/08/28 00:48:02;;;;;;;7.90;5.80;;;;;;;;;;111039;1249;35119;-33
2022/08/28 00:52:04;;;;;;;7.50;5.40;;;;;;;;;;110991;1249;34992;-32
2022/08/28 00:53:26;;;;;;;8.20;5.60;;;;;;;;;;110997;1250;34417;-32
2022/08/28 00:55:58;;;;;;;7.70;5.80;;;;;;;;;;111007;1242;35105;-32
2022/08/28 00:58:32;;;;;;;9.60;5.90;;;;;;;;;;111028;1244;33491;-32
2022/08/28 01:01:03;;;;;;;8.70;5.70;;;;;;;;;;111009;1250;35417;-32
2022/08/28 01:03:35;;;;;;;8.10;5.60;;;;;;;;;;110995;1249;35000;-32
2022/08/28 01:06:06;;;;;;;8.20;5.50;;;;;;;;;;110956;1249;33290;-32
2022/08/28 01:08:40;;;;;;;9.20;5.40;;;;;;;;;;111010;1242;33746;-32
2022/08/28 01:11:13;;;;;;;8.40;5.40;;;;;;;;;;111023;1241;34964;-32
2022/08/28 01:13:46;;;;;;;8.20;5.80;;;;;;;;;;111028;1245;34901;-32
2022/08/28 01:16:15;;;;;;;;;;;;;;;;;;111025;1250;33224;-33
2022/08/28 01:18:47;;;;;;;8.00;5.60;;;;;;;;;;111018;1248;33263;-33
2022/08/28 01:21:22;;;;;;;10.00;5.90;;;;;;;;;;111027;1251;35086;-33
2022/08/28 01:23:56;;;;;;;8.90;5.60;;;;;;;;;;111044;1241;34440;-33
2022/08/28 01:26:28;;;;;;;8.50;5.60;;;;;;;;;;111018;1241;35032;-33
2022/08/28 01:29:03;;;;;;;7.70;6.10;;;;;;;;;;111022;1248;35277;-33
2022/08/28 01:31:37;;;;;;;8.00;6.30;;;;;;;;;;110989;1249;34512;-32
2022/08/28 01:34:11;;;;;;;8.40;6.00;;;;;;;;;;111040;1245;34322;-32
2022/08/28 01:36:46;;;;;;;6.90;5.90;;;;;;;;;;111019;1244;35264;-32
2022/08/28 01:39:19;;;;;;;7.80;6.10;;;;;;;;;;110997;1241;33313;-32
2022/08/28 01:41:52;;;;;;;8.40;6.10;;;;;;;;;;111022;1250;35013;-32
2022/08/28 01:44:26;;;;;;;7.30;5.80;;;;;;;;;;110950;1251;35128;-32
2022/08/28 01:46:58;;;;;;;7.70;6.00;;;;;;;;;;110960;1248;34920;-32
2022/08/28 01:49:30;;;;;;;8.60;5.90;;;;;;;;;;111000;1251;33223;-32
2022/08/28 01:52:00;;;;;;;8.80;6.10;;;;;;;;;;110955;1241;34883;-32
2022/08/28 01:54:32;;;;;;;7.50;6.10;;;;;;;;;;110993;1251;35635;-32
2022/08/28 01:57:04;;;;;;;8.00;6.20;;;;;;;;;;111007;1249;33853;-32
2022/08/28 01:59:36;;;;;;;13.50;6.50;;;;;;;;;;111028;1241;35119;-32
2022/08/28 02:02:09;;;;;;;7.80;5.60;;;;;;;;;;111026;1242;35742;-32
2022/08/28 02:04:40;;;;;;;9.50;6.50;;;;;;;;;;111015;1251;35315;-32
2022/08/28 02:07:11;;;;;;;9.00;6.20;;;;;;;;;;111013;1251;33379;-32
2022/08/28 02:09:43;;;;;;;9.70;6.40;;;;;;;;;;111005;1242;35031;-32
2022/08/28 02:12:14;;;;;;;9.30;5.70;;;;;;;;;;111002;1251;35420;-32
2022/08/28 02:14:45;;;;;;;9.00;6.10;;;;;;;;;;111004;1250;35510;-32
2022/08/28 02:17:16;;;;;;;10.40;6.50;;;;;;;;;;110992;1249;35033;-32
2022/08/28 02:19:47;;;;;;;9.00;6.30;;;;;;;;;;111019;1251;34986;-33
2022/08/28 02:22:19;;;;;;;8.40;6.90;;;;;;;;;;110987;1246;33341;-33
2022/08/28 02:24:49;;;;;;;9.20;6.30;;;;;;;;;;111001;1241;35139;-33
2022/08/28 02:27:21;;;;;;;8.80;6.60;;;;;;;;;;110983;1250;35170;-32
2022/08/28 02:29:52;;;;;;;7.50;6.40;;;;;;;;;;110989;1251;34892;-32
2022/08/28 02:32:22;;;;;;;8.90;7.00;;;;;;;;;;110992;1246;35414;-32
2022/08/28 02:34:54;;;;;;;8.30;6.80;;;;;;;;;;111005;1250;33208;-32
2022/08/28 02:37:25;;;;;;;10.20;6.50;;;;;;;;;;111004;1241;34980;-32
2022/08/28 02:39:57;;;;;;;8.70;7.10;;;;;;;;;;110955;1250;35092;-32
2022/08/28 02:42:28;;;;;;;8.10;6.60;;;;;;;;;;111039;1246;34859;-32
2022/08/28 02:44:59;;;;;;;8.20;6.20;;;;;;;;;;111012;1250;33810;-32
2022/08/28 02:47:30;;;;;;;9.00;7.50;;;;;;;;;;111011;1251;34953;-32
2022/08/28 02:50:02;;;;;;;9.20;8.00;;;;;;;;;;111010;1250;34911;-32
2022/08/28 02:52:34;;;;;;;8.00;6.80;;;;;;;;;;111068;1241;33792;-32
2022/08/28 02:55:11;;;;;;;9.20;6.70;;;;;;;;;;111014;1251;34892;-32
2022/08/28 02:57:42;;;;;;;8.90;6.70;;;;;;;;;;111000;1248;35516;-32
2022/08/28 03:00:18;;;;;;;8.80;7.30;;;;;;;;;;111028;1251;35426;-33
2022/08/28 03:02:49;;;;;;;10.50;7.00;;;;;;;;;;111028;1241;33672;-33
2022/08/28 03:05:23;;;;;;;9.10;7.00;;;;;;;;;;111000;1251;34923;-32
2022/08/28 03:07:55;;;;;;;8.40;6.80;;;;;;;;;;110995;1251;34907;-32
2022/08/28 03:10:26;;;;;;;8.80;7.40;;;;;;;;;;110992;1251;35014;-32
2022/08/28 03:12:58;;;;;;;10.40;8.00;;;;;;;;;;110992;1250;34914;-32
2022/08/28 03:15:28;;;;;;;10.30;7.40;;;;;;;;;;111023;1245;34936;-32
2022/08/28 03:17:59;;;;;;;10.70;8.00;;;;;;;;;;111026;1251;35448;-32
2022/08/28 03:20:33;;;;;;;10.40;7.80;;;;;;;;;;111026;1250;35025;-32
2022/08/28 03:25:53;;;;;;;9.20;7.70;;;;;;;;;;111049;1248;33681;-34
2022/08/28 03:28:24;;;;;;;8.30;7.40;;;;;;;;;;111019;1249;33345;-34
2022/08/28 03:30:55;;;;;;;9.00;7.50;;;;;;;;;;110968;1241;35721;-35
2022/08/28 03:33:26;;;;;;;9.90;7.40;;;;;;;;;;110985;1242;33234;-35
2022/08/28 03:36:00;;;;;;;8.30;7.30;;;;;;;;;;110995;1250;33239;-35
2022/08/28 03:38:32;;;;;;;11.40;8.00;;;;;;;;;;111002;1248;34937;-35
2022/08/28 03:41:03;;;;;;;9.40;7.90;;;;;;;;;;111047;1251;35068;-35
2022/08/28 03:43:34;;;;;;;9.10;7.90;;;;;;;;;;111008;1241;34971;-35
2022/08/28 03:46:07;;;;;;;10.90;7.90;;;;;;;;;;110985;1249;35364;-35
2022/08/28 03:48:39;;;;;;;10.10;7.50;;;;;;;;;;111024;1249;35446;-35
2022/08/28 03:51:13;;;;;;;8.80;7.90;;;;;;;;;;111010;1251;35704;-35
2022/08/28 03:53:44;;;;;;;9.10;8.00;;;;;;;;;;111014;1247;34238;-35
2022/08/28 03:56:20;;;;;;;9.50;8.10;;;;;;;;;;111051;1244;33300;-35
2022/08/28 03:58:53;;;;;;;11.40;8.30;;;;;;;;;;110986;1245;34456;-35
2022/08/28 04:01:25;;;;;;;11.00;8.10;;;;;;;;;;110968;1251;34928;-35
2022/08/28 04:03:57;;;;;;;10.00;8.40;;;;;;;;;;110997;1251;35026;-35
2022/08/28 04:06:28;;;;;;;10.20;8.70;;;;;;;;;;111011;1249;35525;-31
2022/08/28 04:09:01;;;;;;;9.10;8.00;;;;;;;;;;110967;1241;34785;-28
2022/08/28 04:11:36;;;;;;;13.00;9.00;;;;;;;;;;111011;1242;36103;-30
2022/08/28 04:14:07;;;;;;;10.10;8.60;;;;;;;;;;111007;1251;35326;-30
2022/08/28 04:16:38;;;;;;;10.00;8.00;;;;;;;;;;110992;1251;33309;-30
2022/08/28 04:19:09;;;;;;;10.70;8.70;;;;;;;;;;111030;1250;34925;-30
2022/08/28 04:21:40;;;;;;;10.10;9.00;;;;;;;;;;110991;1242;33806;-30
2022/08/28 04:24:12;;;;;;;10.00;8.10;;;;;;;;;;110987;1251;35366;-30
2022/08/28 04:26:44;;;;;;;12.10;8.50;;;;;;;;;;111015;1250;35060;-30
2022/08/28 04:29:15;;;;;;;11.50;9.00;;;;;;;;;;110993;1250;33340;-30
2022/08/28 04:31:46;;;;;;;10.50;8.50;;;;;;;;;;110958;1249;34927;-28
2022/08/28 04:34:17;;;;;;;11.90;9.40;;;;;;;;;;110991;1247;35058;-29
2022/08/28 04:36:51;;;;;;;11.80;8.90;;;;;;;;;;110972;1250;35214;-31
2022/08/28 04:39:22;;;;;;;10.30;9.10;;;;;;;;;;111005;1251;35600;-31
2022/08/28 04:41:55;;;;;;;11.50;9.30;;;;;;;;;;111005;1249;35510;-30
2022/08/28 04:44:26;;;;;;;12.20;9.90;;;;;;;;;;111000;1249;34947;-30
2022/08/28 04:46:57;;;;;;;11.40;8.80;;;;;;;;;;110984;1249;35189;-30
2022/08/28 04:49:29;;;;;;;10.90;8.90;;;;;;;;;;110995;1249;35028;-31
2022/08/28 04:51:59;;;;;;;10.10;9.00;;;;;;;;;;111005;1248;35009;-31
2022/08/28 04:54:31;;;;;;;11.50;9.60;;;;;;;;;;111030;1249;34936;-31
2022/08/28 04:57:02;;;;;;;11.50;8.90;;;;;;;;;;110986;1249;34871;-30
2022/08/28 04:59:33;;;;;;;14.80;9.80;;;;;;;;;;111001;1241;34341;-30
2022/08/28 05:02:05;;;;;;;10.80;9.70;;;;;;;;;;111010;1250;33354;-30
2022/08/28 05:04:36;;;;;;;12.90;9.80;;;;;;;;;;110977;1241;34972;-31
2022/08/28 05:07:07;;;;;;;11.70;9.50;;;;;;;;;;110986;1249;34325;-31
2022/08/28 05:09:38;;;;;;;10.80;9.40;;;;;;;;;;111018;1248;34999;-32
2022/08/28 05:12:14;;;;;;;11.80;9.30;;;;;;;;;;110561;1249;547246;-32
2022/08/28 05:14:46;;;;;;;10.50;9.20;;;;;;;;;;110967;1244;35172;-31
2022/08/28 05:17:20;;;;;;;10.80;9.70;;;;;;;;;;110984;1250;35014;-32
2022/08/28 05:19:49;;;;;;;;;;;;;;;;;;110994;1249;35185;-32
2022/08/28 05:22:19;;;;;;;11.80;10.10;;;;;;;;;;111003;1248;35494;-32
2022/08/28 05:24:50;;;;;;;11.80;9.60;;;;;;;;;;110983;1241;33797;-32
2022/08/28 05:27:22;;;;;;;11.60;10.20;;;;;;;;;;110994;1249;34930;-31
2022/08/28 05:29:56;;;;;;;12.60;9.40;;;;;;;;;;110968;1249;35415;-32
2022/08/28 05:32:27;;;;;;;11.40;9.40;;;;;;;;;;110977;1249;35091;-32
2022/08/28 05:34:58;;;;;;;10.90;9.00;;;;;;;;;;111030;1248;33313;-32
2022/08/28 05:37:29;;;;;;;11.60;8.90;;;;;;;;;;110988;1245;34156;-32
2022/08/28 05:40:00;;;;;;;11.20;10.10;;;;;;;;;;111000;1248;35115;-32
2022/08/28 05:42:31;;;;;;;10.40;8.80;;;;;;;;;;110983;1249;35085;-32
2022/08/28 05:45:02;;;;;;;13.50;9.30;;;;;;;;;;110960;1251;35049;-32
2022/08/28 05:47:34;;;;;;;11.40;8.70;;;;;;;;;;110914;1245;33673;-33
2022/08/28 05:50:07;;;;;;;11.60;8.80;;;;;;;;;;111017;1241;33730;-33
2022/08/28 05:52:41;;;;;;;12.20;8.90;;;;;;;;;;111019;1241;34946;-33
2022/08/28 05:55:14;;;;;;;11.60;8.90;;;;;;;;;;111024;1247;35153;-33
2022/08/28 05:57:45;;;;;;;9.60;8.60;;;;;;;;;;111025;1247;34747;-33
2022/08/28 06:00:17;;;;;;;12.10;9.30;;;;;;;;;;111014;1242;34381;-33
2022/08/28 06:02:49;;;;;;;11.10;9.10;;;;;;;;;;111005;1241;35562;-33
2022/08/28 06:05:24;;;;;;;9.30;8.00;;;;;;;;;;111048;1247;35077;-33
2022/08/28 06:07:56;;;;;;;9.70;8.40;;;;;;;;;;111036;1247;35353;-33
2022/08/28 06:10:28;;;;;;;10.20;8.60;;;;;;;;;;111059;1247;35030;-33
2022/08/28 06:13:02;;;;;;;9.60;8.10;;;;;;;;;;111056;1241;33533;-33
2022/08/28 06:15:40;;;;;;;10.90;8.80;;;;;;;;;;111043;1247;35243;-32
2022/08/28 06:18:13;;;;;;;9.50;8.10;;;;;;;;;;111045;1247;34293;-32
2022/08/28 06:20:45;;;;;;;11.00;8.20;;;;;;;;;;111015;1247;35019;-32
2022/08/28 06:23:19;;;;;;;9.90;7.60;;;;;;;;;;111078;1247;34896;-32
2022/08/28 06:25:51;;;;;;;10.10;8.20;;;;;;;;;;111017;1247;34085;-32
2022/08/28 06:28:24;;;;;;;9.20;7.80;;;;;;;;;;111054;1247;33807;-33
2022/08/28 06:30:56;;;;;;;9.70;7.70;;;;;;;;;;111027;1247;33246;-33
2022/08/28 06:33:27;;;;;;;10.60;8.10;;;;;;;;;;111067;1247;35423;-33
2022/08/28 06:35:58;;;;;;;11.50;8.00;;;;;;;;;;111001;1247;35453;-33
2022/08/28 06:38:30;;;;;;;9.00;7.60;;;;;;;;;;111033;1247;35194;-33
2022/08/28 06:41:01;;;;;;;10.60;7.40;;;;;;;;;;111027;1247;35329;-33
2022/08/28 06:43:35;;;;;;;9.80;7.70;;;;;;;;;;111046;1247;35243;-33
2022/08/28 06:46:06;;;;;;;10.50;7.30;;;;;;;;;;111036;1247;35374;-33
2022/08/28 06:48:37;;;;;;;9.40;7.80;;;;;;;;;;111084;1247;35515;-33
2022/08/28 06:51:11;;;;;;;10.20;7.80;;;;;;;;;;111041;1247;33280;-33
2022/08/28 06:53:45;;;;;;;9.40;7.30;;;;;;;;;;111071;1247;34924;-30
2022/08/28 06:56:18;;;;;;;9.10;8.00;;;;;;;;;;111089;1247;34898;-32
2022/08/28 06:58:52;;;;;;;9.30;7.50;;;;;;;;;;111040;1247;33316;-32
2022/08/28 07:01:27;;;;;;;9.30;7.40;;;;;;;;;;111045;1247;35094;-32
2022/08/28 07:04:02;;;;;;;11.10;8.50;;;;;;;;;;111038;1247;33290;-32
2022/08/28 07:06:34;;;;;;;10.10;7.60;;;;;;;;;;111073;1247;34375;-32
2022/08/28 07:09:09;;;;;;;10.30;7.90;;;;;;;;;;111095;1247;34990;-32
2022/08/28 07:11:44;;;;;;;9.70;7.30;;;;;;;;;;111069;1247;34974;-32
2022/08/28 07:14:15;;;;;;;10.20;7.90;;;;;;;;;;111020;1247;35040;-32
2022/08/28 07:16:45;;;;;;;8.90;7.70;;;;;;;;;;111051;1247;34953;-32
2022/08/28 07:19:17;;;;;;;11.00;8.20;;;;;;;;;;111045;1247;34984;-32
2022/08/28 07:21:48;;;;;;;9.00;7.70;;;;;;;;;;111032;1247;34980;-33
2022/08/28 07:24:19;;;;;;;11.50;8.10;;;;;;;;;;110996;1250;35553;-33
2022/08/28 07:26:50;;;;;;;11.00;8.40;;;;;;;;;;111013;1250;35681;-33
2022/08/28 07:29:21;;;;;;;10.60;8.10;;;;;;;;;;110966;1249;33252;-33
2022/08/28 07:31:54;;;;;;;11.50;9.10;;;;;;;;;;110950;1250;33691;-33
2022/08/28 07:34:25;;;;;;;11.40;8.20;;;;;;;;;;110976;1245;34929;-33
2022/08/28 07:37:02;;;;;;;10.50;8.80;;;;;;;;;;110951;1250;35420;-33
2022/08/28 07:39:34;;;;;;;12.00;8.60;;;;;;;;;;110945;1250;34971;-33
2022/08/28 07:42:05;;;;;;;10.20;8.40;;;;;;;;;;110948;1241;35231;-32
2022/08/28 07:44:53;;;;;;;11.60;9.30;;;;;;;;;;111003;1251;35148;-32
2022/08/28 07:47:28;;;;;;;10.90;8.60;;;;;;;;;;110959;1245;34934;-35
2022/08/28 07:50:00;;;;;;;10.90;8.70;;;;;;;;;;110962;1249;33382;-35
2022/08/28 07:52:31;;;;;;;9.80;8.40;;;;;;;;;;111004;1250;35169;-35
2022/08/28 07:55:02;;;;;;;10.50;8.30;;;;;;;;;;111008;1247;35322;-35
2022/08/28 07:57:33;;;;;;;10.60;8.10;;;;;;;;;;110965;1249;34926;-35
2022/08/28 08:00:06;;;;;;;11.20;8.50;;;;;;;;;;111004;1250;35116;-35
2022/08/28 08:02:37;;;;;;;10.00;8.50;;;;;;;;;;110995;1250;34953;-35
2022/08/28 08:05:11;;;;;;;11.20;8.30;;;;;;;;;;110999;1250;34942;-33
2022/08/28 08:07:41;;;;;;;9.40;8.10;;;;;;;;;;110857;1243;35075;-33
2022/08/28 08:10:18;;;;;;;10.30;7.80;;;;;;;;;;111011;1250;33434;-33
2022/08/28 08:12:49;;;;;;;12.00;8.30;;;;;;;;;;110991;1249;35130;-33
2022/08/28 08:15:20;;;;;;;11.30;9.40;;;;;;;;;;110964;1250;35022;-35
2022/08/28 08:17:51;;;;;;;12.40;8.10;;;;;;;;;;110960;1249;35237;-35
2022/08/28 08:20:22;;;;;;;9.70;7.90;;;;;;;;;;110992;1241;33246;-35
2022/08/28 08:22:52;;;;;;;10.40;8.10;;;;;;;;;;110975;1245;34285;-35
2022/08/28 08:25:23;;;;;;;9.40;8.30;;;;;;;;;;111009;1249;34901;-35
2022/08/28 08:27:54;;;;;;;9.10;8.20;;;;;;;;;;111010;1250;33638;-34
2022/08/28 08:30:25;;;;;;;10.40;7.90;;;;;;;;;;110980;1242;34776;-32
2022/08/28 08:32:56;;;;;;;9.20;7.70;;;;;;;;;;110992;1244;35029;-32
2022/08/28 08:35:26;;;;;;;9.90;8.60;;;;;;;;;;110979;1244;34805;-32
2022/08/28 08:37:59;;;;;;;12.50;8.60;;;;;;;;;;111006;1250;35041;-32
2022/08/28 08:40:33;;;;;;;12.60;9.10;;;;;;;;;;110961;1249;34392;-32
2022/08/28 08:43:04;;;;;;;10.90;8.30;;;;;;;;;;110976;1249;34972;-32
2022/08/28 08:45:36;;;;;;;12.90;8.60;;;;;;;;;;110997;1250;35143;-33
2022/08/28 08:48:12;;;;;;;13.10;8.70;;;;;;;;;;111007;1241;35172;-30
2022/08/28 08:50:43;;;;;;;10.10;8.50;;;;;;;;;;110991;1249;34945;-30
2022/08/28 08:53:27;;;;;;;11.60;8.60;;;;;;;;;;110957;1249;35070;-30
2022/08/28 08:56:01;;;;;;;10.60;8.20;;;;;;;;;;110982;1241;35017;-30
2022/08/28 08:58:36;;;;;;;11.40;7.70;;;;;;;;;;110851;1244;35491;-34
2022/08/28 09:01:15;;;;;;;10.80;8.10;;;;;;;;;;110974;1241;34932;-35
2022/08/28 09:03:54;;;;;;;8.80;7.20;;;;;;;;;;110957;1241;34534;-35
2022/08/28 09:06:31;;;;;;;10.10;7.60;;;;;;;;;;110990;1248;34981;-35
2022/08/28 09:09:04;;;;;;;9.10;7.40;;;;;;;;;;110947;1249;35299;-33
2022/08/28 09:11:48;;;;;;;11.00;7.40;;;;;;;;;;110942;1250;33271;-32
2022/08/28 09:14:25;;;;;;;10.00;7.50;;;;;;;;;;110999;1241;35044;-33
2022/08/28 09:16:59;;;;;;;9.50;6.90;;;;;;;;;;110944;1244;34859;-33
2022/08/28 09:19:30;;;;;;;10.30;7.10;;;;;;;;;;110947;1250;35288;-33
2022/08/28 09:22:01;;;;;;;8.80;7.20;;;;;;;;;;111011;1249;33302;-33
2022/08/28 09:24:35;;;;;;;9.70;7.50;;;;;;;;;;111002;1245;35056;-32
2022/08/28 09:27:09;;;;;;;11.00;7.20;;;;;;;;;;111041;1241;33360;-32
2022/08/28 09:29:42;;;;;;;8.40;6.70;;;;;;;;;;111014;1250;34936;-32
2022/08/28 09:32:22;;;;;;;8.10;7.00;;;;;;;;;;111031;1249;33239;-32
2022/08/28 09:35:12;;;;;;;8.40;6.70;;;;;;;;;;110998;1249;33523;-33
2022/08/28 09:37:44;;;;;;;8.90;7.00;;;;;;;;;;110993;1241;35035;-33
2022/08/28 09:40:25;;;;;;;8.60;7.00;;;;;;;;;;110964;1244;35054;-33
2022/08/28 09:45:58;;;;;;;8.30;6.60;;;;;;;;;;110972;1250;35473;-33
2022/08/28 09:48:35;;;;;;;8.30;6.40;;;;;;;;;;110937;1249;34249;-32
2022/08/28 09:51:09;;;;;;;7.90;6.10;;;;;;;;;;110985;1244;34696;-33
2022/08/28 09:53:56;;;;;;;7.40;6.50;;;;;;;;;;110986;1249;34946;-33
2022/08/28 09:56:32;;;;;;;8.10;6.40;;;;;;;;;;110990;1249;34946;-33
2022/08/28 09:59:05;;;;;;;7.30;6.10;;;;;;;;;;110967;1250;35508;-33
2022/08/28 10:01:50;;;;;;;7.30;6.30;;;;;;;;;;111010;1250;33242;-33
2022/08/28 10:04:41;;;;;;;7.50;6.20;;;;;;;;;;110987;1249;35063;-33
2022/08/28 10:07:16;;;;;;;9.00;6.30;;;;;;;;;;110957;1245;34660;-33
2022/08/28 10:10:01;;;;;;;7.80;6.10;;;;;;;;;;110948;1244;34853;-33
2022/08/28 10:12:42;;;;;;;7.30;6.30;;;;;;;;;;110933;1250;35423;-32
2022/08/28 10:15:18;;;;;;;8.40;6.00;;;;;;;;;;110940;1241;35012;-32
2022/08/28 10:18:00;;;;;;;6.70;5.60;;;;;;;;;;111007;1243;35442;-34
2022/08/28 10:20:44;;;;;;;7.30;6.10;;;;;;;;;;111001;1249;33283;-33
2022/08/28 10:23:23;;;;;;;8.30;6.20;;;;;;;;;;110997;1249;34993;-33
2022/08/28 10:26:01;;;;;;;7.90;5.50;;;;;;;;;;110966;1250;34921;-33
2022/08/28 10:28:43;;;;;;;7.40;5.50;;;;;;;;;;111064;1250;35096;-33
2022/08/28 10:31:19;;;;;;;8.20;5.50;;;;;;;;;;110992;1241;34199;-33
2022/08/28 10:34:16;;;;;;;7.10;5.50;;;;;;;;;;110992;1245;35348;-33
2022/08/28 10:36:49;;;;;;;8.20;5.90;;;;;;;;;;110976;1241;35110;-33
2022/08/28 10:39:32;;;;;;;6.90;5.60;;;;;;;;;;110942;1241;34301;-30
2022/08/28 10:42:05;;;;;;;7.20;5.50;;;;;;;;;;110974;1249;35828;-30
2022/08/28 10:44:40;;;;;;;10.60;5.40;;;;;;;;;;110979;1244;34042;-30
2022/08/28 10:47:12;;;;;;;7.10;5.70;;;;;;;;;;110954;1250;33428;-31
2022/08/28 10:49:44;;;;;;;7.10;5.70;;;;;;;;;;110968;1244;33444;-31
2022/08/28 10:52:21;;;;;;;7.20;5.30;;;;;;;;;;110983;1250;34907;-30
2022/08/28 10:54:55;;;;;;;7.40;5.50;;;;;;;;;;110995;1250;34912;-30
2022/08/28 10:57:34;;;;;;;7.80;5.50;;;;;;;;;;110836;1245;34325;-31
2022/08/28 11:00:10;;;;;;;7.60;5.50;;;;;;;;;;110977;1249;34954;-31
2022/08/28 11:02:44;;;;;;;6.90;5.30;;;;;;;;;;111006;1241;34885;-30
2022/08/28 11:05:19;;;;;;;6.10;5.20;;;;;;;;;;110981;1250;34463;-30
2022/08/28 11:07:54;;;;;;;8.00;5.00;;;;;;;;;;110982;1249;35442;-30
2022/08/28 11:10:51;;;;;;;7.90;5.30;;;;;;;;;;110984;1249;35438;-30
2022/08/28 11:13:47;;;;;;;8.10;5.60;;;;;;;;;;111020;1249;33345;-30
2022/08/28 11:16:24;;;;;;;7.30;5.00;;;;;;;;;;111010;1249;35460;-30
2022/08/28 11:19:19;;;;;;;6.80;5.40;;;;;;;;;;111039;1249;35508;-30
2022/08/28 11:21:53;;;;;;;7.30;5.30;;;;;;;;;;111019;1250;34969;-29
2022/08/28 11:24:38;;;;;;;7.60;5.30;;;;;;;;;;111038;1249;35207;-29
2022/08/28 11:27:21;;;;;;;7.00;5.20;;;;;;;;;;110978;1241;35066;-30
2022/08/28 11:30:06;;;;;;;;;;;;;;;;;;110995;1249;34911;-30
2022/08/28 11:32:59;;;;;;;6.70;4.80;;;;;;;;;;111013;1249;35027;-30
2022/08/28 11:35:47;;;;;;;7.10;5.20;;;;;;;;;;111002;1249;34247;-30
2022/08/28 11:38:52;;;;;;;6.00;5.10;;;;;;;;;;111022;1249;34912;-30
2022/08/28 11:41:26;;;;;;;6.70;4.70;;;;;;;;;;110973;1241;33893;-32
2022/08/28 11:44:27;;;;;;;7.90;5.20;;;;;;;;;;110956;1243;33712;-33
2022/08/28 11:47:18;;;;;;;7.60;5.20;;;;;;;;;;110970;1249;35078;-32
2022/08/28 11:49:49;;;;;;;6.80;4.70;;;;;;;;;;110950;1249;35342;-33
2022/08/28 11:52:38;;;;;;;5.80;4.70;;;;;;;;;;110965;1244;33265;-33
2022/08/28 11:55:23;;;;;;;6.60;4.70;;;;;;;;;;110967;1249;34804;-33
2022/08/28 11:58:05;;;;;;;6.10;4.60;;;;;;;;;;110963;1244;33362;-33
2022/08/28 12:00:50;;;;;;;7.10;5.10;;;;;;;;;;110987;1250;34948;-33
2022/08/28 12:03:31;;;;;;;6.50;4.90;;;;;;;;;;110945;1249;34629;-33
2022/08/28 12:06:02;;;;;;;6.10;4.50;;;;;;;;;;111022;1249;35354;-32
2022/08/28 12:09:10;;;;;;;6.90;4.90;;;;;;;;;;110999;1241;33277;-32
2022/08/28 12:11:58;;;;;;;5.80;4.50;;;;;;;;;;110987;1244;35365;-33
2022/08/28 12:15:06;;;;;;;7.20;5.20;;;;;;;;;;110979;1241;34404;-33
2022/08/28 12:17:52;;;;;;;6.00;4.60;;;;;;;;;;111004;1249;34974;-33
2022/08/28 12:20:56;;;;;;;6.00;4.70;;;;;;;;;;111021;1241;34914;-33
2022/08/28 12:23:37;;;;;;;6.40;4.90;;;;;;;;;;111022;1249;35070;-33
2022/08/28 12:26:13;;;;;;;5.90;4.60;;;;;;;;;;111035;1249;33820;-33
2022/08/28 12:28:51;;;;;;;6.10;5.10;;;;;;;;;;110969;1241;35516;-33
2022/08/28 12:32:13;;;;;;;6.60;4.80;;;;;;;;;;110988;1249;35283;-33
2022/08/28 12:35:04;;;;;;;7.40;5.50;;;;;;;;;;111032;1244;34760;-33
2022/08/28 12:37:38;;;;;;;6.70;4.90;;;;;;;;;;110959;1243;35037;-31
2022/08/28 12:40:15;;;;;;;7.70;5.10;;;;;;;;;;110957;1250;35474;-33
2022/08/28 12:42:52;;;;;;;5.90;4.90;;;;;;;;;;111006;1250;33962;-33
2022/08/28 12:45:27;;;;;;;6.90;5.00;;;;;;;;;;111002;1249;35003;-33
2022/08/28 12:48:00;;;;;;;7.30;5.20;;;;;;;;;;111021;1249;35488;-33
2022/08/28 12:50:31;;;;;;;;;;;;;;;;;;110997;1249;35513;-33
2022/08/28 12:53:05;;;;;;;7.10;5.40;;;;;;;;;;110984;1249;34900;-33
2022/08/28 12:55:41;;;;;;;7.40;5.30;;;;;;;;;;110959;1241;34914;-33
2022/08/28 12:58:27;;;;;;;6.70;5.30;;;;;;;;;;111026;1250;34761;-32
2022/08/28 13:01:01;;;;;;;8.00;5.50;;;;;;;;;;110979;1250;34924;-31
2022/08/28 13:03:32;;;;;;;8.90;5.20;;;;;;;;;;110990;1241;34979;-33
2022/08/28 13:06:08;;;;;;;6.20;5.30;;;;;;;;;;111018;1249;35081;-33
2022/08/28 13:08:39;;;;;;;6.30;4.90;;;;;;;;;;110946;1249;35239;-34
2022/08/28 13:11:10;;;;;;;8.00;5.20;;;;;;;;;;110611;1250;512970;-33
2022/08/28 13:13:45;;;;;;;6.70;5.10;;;;;;;;;;110994;1243;35329;-32
2022/08/28 13:16:37;;;;;;;7.30;5.70;;;;;;;;;;111008;1245;34922;-33
2022/08/28 13:19:26;;;;;;;7.20;5.60;;;;;;;;;;111028;1249;35060;-33
2022/08/28 13:22:00;;;;;;;7.40;5.40;;;;;;;;;;110975;1242;35264;-33
2022/08/28 13:24:44;;;;;;;7.10;5.40;;;;;;;;;;111031;1250;35159;-34
2022/08/28 13:27:24;;;;;;;6.80;5.90;;;;;;;;;;111064;1241;35009;-33
2022/08/28 13:30:00;;;;;;;7.70;5.90;;;;;;;;;;111025;1241;34421;-33
2022/08/28 13:32:33;;;;;;;7.70;5.80;;;;;;;;;;111036;1241;35391;-33
2022/08/28 13:35:15;;;;;;;7.50;5.70;;;;;;;;;;111023;1249;35198;-33
2022/08/28 13:37:49;;;;;;;7.30;5.80;;;;;;;;;;111015;1243;35066;-33
2022/08/28 13:40:24;;;;;;;8.60;5.70;;;;;;;;;;111023;1249;35573;-33
2022/08/28 13:42:58;;;;;;;6.70;5.60;;;;;;;;;;110993;1244;34974;-33
2022/08/28 13:45:29;;;;;;;6.70;5.20;;;;;;;;;;111001;1241;34249;-34
2022/08/28 13:48:00;;;;;;;7.30;5.50;;;;;;;;;;110969;1250;34966;-32
2022/08/28 13:50:32;;;;;;;7.60;5.60;;;;;;;;;;111000;1250;33251;-34
2022/08/28 13:53:02;;;;;;;7.30;5.80;;;;;;;;;;111031;1241;34220;-33
2022/08/28 13:55:33;;;;;;;8.50;5.40;;;;;;;;;;110976;1241;35456;-31
2022/08/28 13:58:03;;;;;;;6.80;5.30;;;;;;;;;;111006;1241;34248;-32
2022/08/28 14:00:38;;;;;;;6.20;5.40;;;;;;;;;;111014;1250;35369;-33
2022/08/28 14:05:57;;;;;;;7.90;5.30;;;;;;;;;;111021;1249;35073;-33
2022/08/28 14:08:28;;;;;;;8.10;5.30;;;;;;;;;;111004;1243;35038;-33
2022/08/28 14:10:59;;;;;;;7.40;5.40;;;;;;;;;;111016;1249;35078;-33
2022/08/28 14:13:31;;;;;;;7.40;5.20;;;;;;;;;;111019;1249;35455;-33
2022/08/28 14:16:06;;;;;;;6.60;5.40;;;;;;;;;;110999;1249;34931;-33
2022/08/28 14:18:37;;;;;;;7.80;6.30;;;;;;;;;;111060;1241;35024;-33
2022/08/28 14:21:09;;;;;;;7.50;5.10;;;;;;;;;;111013;1249;35099;-32
2022/08/28 14:23:40;;;;;;;7.80;5.30;;;;;;;;;;110996;1249;34955;-33
2022/08/28 14:26:11;;;;;;;6.10;5.00;;;;;;;;;;110993;1249;35172;-33
2022/08/28 14:28:42;;;;;;;6.90;5.10;;;;;;;;;;110994;1249;34997;-33
2022/08/28 14:31:13;;;;;;;7.70;4.80;;;;;;;;;;111005;1250;35089;-33
2022/08/28 14:33:44;;;;;;;6.40;5.00;;;;;;;;;;111015;1249;34978;-32
2022/08/28 14:36:20;;;;;;;6.90;4.90;;;;;;;;;;111003;1249;35201;-32
2022/08/28 14:38:53;;;;;;;6.10;4.80;;;;;;;;;;110976;1249;34942;-32
2022/08/28 14:41:25;;;;;;;7.40;5.00;;;;;;;;;;111016;1249;33220;-33
2022/08/28 14:43:56;;;;;;;6.90;4.50;;;;;;;;;;111042;1243;34962;-33
2022/08/28 14:46:32;;;;;;;6.80;4.80;;;;;;;;;;111046;1244;34289;-33
2022/08/28 14:49:06;;;;;;;6.00;4.50;;;;;;;;;;111024;1249;35067;-33
2022/08/28 14:51:39;;;;;;;6.10;4.20;;;;;;;;;;110988;1249;35054;-33
2022/08/28 14:54:14;;;;;;;6.80;4.60;;;;;;;;;;110975;1249;35276;-33
2022/08/28 14:56:47;;;;;;;6.90;4.60;;;;;;;;;;111003;1241;34980;-33
2022/08/28 14:59:20;;;;;;;7.00;4.60;;;;;;;;;;111024;1243;34433;-32
2022/08/28 15:01:52;;;;;;;6.00;4.40;;;;;;;;;;111037;1249;35286;-32
2022/08/28 15:04:27;;;;;;;5.80;4.10;;;;;;;;;;110982;1250;34502;-33
2022/08/28 15:06:59;;;;;;;6.20;4.50;;;;;;;;;;111005;1249;35232;-33
2022/08/28 15:09:29;;;;;;;;;;;;;;;;;;111005;1247;34287;-33
2022/08/28 15:12:00;;;;;;;5.70;4.00;;;;;;;;;;110950;1244;34483;-33
2022/08/28 15:14:31;;;;;;;7.00;4.20;;;;;;;;;;110998;1244;34618;-31
2022/08/28 15:17:02;;;;;;;6.50;4.30;;;;;;;;;;110948;1249;33380;-29
2022/08/28 15:19:33;;;;;;;5.60;4.20;;;;;;;;;;110998;1249;35451;-34
2022/08/28 15:22:04;;;;;;;5.90;4.10;;;;;;;;;;110999;1241;34257;-35